Garber, Iowa
Current Conditions -  °F | °C
As of 7:55 AM on Sunday 25 Jan 2015 (Local Time) from KPDC Reporting Station
Light Snow Light Snow  
Wind Chill: 16°   Ceiling: 1800
Heat Index: 27°   Visibility: 3mi
Dew Point: 22°   Wind: 14mph
Humidity: 79%   Direction: 30°NNE
Pressure: 29.84"   Gusts: 18mph
Location:  42.74°N, 91.26°W
Report Text: KPDC 251355Z AUTO 03012G16KT 3SM -SN SCT011 OVC018 M03/M06 A2984 RMK AO2 T10271058
Loading
Personal Weather Stations






























Interactive Weather Map New forecast layout! Learn more

10-Day Weather Forecast

Advertisements
Track Severe Weather on mobile